Terminal Aerodrome Forecast
Issued by NWS Cleveland, OH

Home | Current Version | Previous Version | Graphics & Text | Print | Product List | Glossary On
Versions: 1 2 3 4 5 6 7 8 9 10 11 12 13 14 15 16 17 18 19
000
FTUS41 KCLE 191500 AAA
TAFYNG
TAF AMD
KYNG 191503Z 1915/2012 30010KT P6SM BKN035
      TEMPO 1915/1917 BKN025
     FM192000 26007KT P6SM SCT035 BKN250
     FM200200 20005KT P6SM BKN250
     FM200800 18007KT P6SM SCT120 OVC250=

USA.gov is the U.S. government's official web portal to all federal, state and local government web resources and services.